LiveATC.Net - Listen to live air traffic control over the Internet!

ICAO: KBJC  IATA: BJC   Airport: Rocky Mountain Metropolitan Airport
City: Denver   State/Province: Colorado
Country: United States   Continent: North America
KBJC METAR Weather: KBJC 191547Z 00000KT 50SM FEW080 BKN160 BKN220 01/M02 A3002
KBJC Flight Activity (FlightAware)
KBJC Webcam:  (Airport Webcams) 
KBJC Airport Info   (AirNav) (iFlightPlanner)
KBJC VFR Sectional Chart   (iFlightPlanner) 
KBJC IFR Low Chart   (iFlightPlanner) 
KBJC Ground/Tower
Feed Status: UP   Listeners: 0
Listen right in your browser - requires Flash (in browser, requires Flash)
Click here to listen with your own player (launches your MP3 player)
KBJC Ground/Tower Audio Archives
Metro Ground121.700
Metro Tower118.600

Feed sponsored by: Colorado Heli-Ops


Unauthorized use prohibited. See Terms of Service

Find LiveATC Audio Streams

Airport/ARTCC Code

Frequency Search
(e.g., 124.400, 128.75)
Site-wide search

Browse LiveATC Feeds
LiveATC Coverage Map
Top 50 LiveATC Feeds
Bad Weather Areas

Offer a LiveATC Feed
Press Inquiries

LiveATC on iPhone
LiveATC on Android

Windows Phone
Windows 8/10

LiveATC Mobile
(Mobile browser)

ATC Audio Archives
Interesting Recordings

LiveATC Forums

Home Page
Make a Donation
Terms of Use
Privacy Policy

Canadian Air Freqs


FAA Airport Status
Nat'l Airspace Status
Arrival Demand Charts

Server Software By: